Time;durP1;ratioP1;P1;durP2;ratioP2;P2;SDS_P1;SDS_P2;PMS_P1;PMS_P2;Temp;Humidity;BMP_temperature;BMP_pressure;BME280_temperature;BME280_humidity;BME280_pressure;Samples;Min_cycle;Max_cycle;Signal;HPM_P1;HPM_P2
2023/01/06 00:00:29;;;;;;;;;;;;;;;13.35;48.96;99450.34;4478012;32;33234;-81
2023/01/06 00:02:57;;;;;;;;;;;;;;;13.72;48.61;99461.84;4468385;32;34199;-83
2023/01/06 00:05:24;;;;;;;;;;;;;;;12.95;50.47;99460.44;4482136;32;35233;-81
2023/01/06 00:07:51;;;;;;;;;;;;;;;12.74;50.83;99475.87;4482932;32;34783;-82
2023/01/06 00:10:19;;;;;;;;;;;;;;;12.82;50.52;99475.09;4471995;32;33749;-82
2023/01/06 00:12:46;;;;;;;;;;;;;;;12.20;52.54;99488.34;4467921;32;35322;-81
2023/01/06 00:15:14;;;;;;;;;;;;;;;13.04;50.46;99483.09;4466605;32;34063;-81
2023/01/06 00:17:42;;;;;;;;;;;;;;;12.92;50.53;99481.25;4474624;32;33867;-82
2023/01/06 00:20:09;;;;;;;;;;;;;;;12.09;52.57;99489.94;4476824;32;33137;-82
2023/01/06 00:22:40;;;;;;;;;;;;;;;12.46;52.14;99480.81;4452232;32;35565;-82
2023/01/06 00:25:09;;;;;;;;;;;;;;;12.60;51.81;99492.22;4467572;32;34432;-82
2023/01/06 00:27:37;;;;;;;;;;;;;;;12.00;53.01;99480.31;4480402;32;33740;-82
2023/01/06 00:30:06;;;;;;;;;;;;;;;13.00;50.70;99479.59;4467634;32;33193;-83
2023/01/06 00:32:33;;;;;;;;;;;;;;;13.32;49.95;99476.38;4483530;32;34827;-88
2023/01/06 00:35:01;;;;;;;;;;;;;;;12.61;51.31;99486.19;4469178;32;35269;-82
2023/01/06 00:37:29;;;;;;;;;;;;;;;11.46;54.59;99494.28;4479285;32;33556;-89
2023/01/06 00:39:57;;;;;;;;;;;;;;;11.75;54.20;99512.00;4483336;32;33304;-81
2023/01/06 00:42:25;;;;;;;;;;;;;;;12.25;53.14;99511.78;4476515;32;34080;-82
2023/01/06 00:44:52;;;;;;;;;;;;;;;13.03;50.72;99516.06;4483233;32;34817;-87
2023/01/06 00:47:20;;;;;;;;;;;;;;;12.06;53.57;99521.97;4470593;32;34133;-88
2023/01/06 00:49:47;;;;;;;;;;;;;;;13.08;50.55;99518.69;4467150;32;33924;-81
2023/01/06 00:52:14;;;;;;;;;;;;;;;12.33;52.51;99515.34;4477870;32;34104;-82
2023/01/06 00:54:42;;;;;;;;;;;;;;;12.34;52.56;99522.28;4482891;32;34444;-84
2023/01/06 00:57:09;;;;;;;;;;;;;;;11.77;53.86;99513.75;4482856;32;34855;-81
2023/01/06 00:59:36;;;;;;;;;;;;;;;12.90;51.19;99524.59;4483190;32;33696;-81
2023/01/06 01:02:04;;;;;;;;;;;;;;;12.70;51.67;99526.16;4481378;32;33623;-87
2023/01/06 01:04:33;;;;;;;;;;;;;;;13.60;49.40;99526.91;4482940;32;33932;-81
2023/01/06 01:07:00;;;;;;;;;;;;;;;12.95;50.59;99530.69;4482537;32;34875;-86
2023/01/06 01:09:29;;;;;;;;;;;;;;;13.09;50.50;99533.44;4480899;32;32931;-88
2023/01/06 01:12:08;;;;;;;;;;;;;;;12.87;50.71;99545.38;4482485;32;33598;-89
2023/01/06 01:14:37;;;;;;;;;;;;;;;13.23;50.19;99544.88;4467608;32;34402;-82
2023/01/06 01:17:04;;;;;;;;;;;;;;;13.50;49.41;99546.81;4464724;32;34071;-85
2023/01/06 01:19:31;;;;;;;;;;;;;;;14.09;47.82;99550.59;4468089;32;34214;-82
2023/01/06 01:21:59;;;;;;;;;;;;;;;12.77;50.93;99549.63;4473746;32;33909;-82
2023/01/06 01:24:27;;;;;;;;;;;;;;;13.42;49.56;99552.84;4464064;32;35129;-82
2023/01/06 01:26:54;;;;;;;;;;;;;;;13.90;48.26;99551.37;4465055;32;34141;-82
2023/01/06 01:29:24;;;;;;;;;;;;;;;12.87;51.09;99561.00;4477680;32;32826;-88
2023/01/06 01:31:51;;;;;;;;;;;;;;;12.79;51.45;99567.84;4480991;32;33583;-88
2023/01/06 01:34:18;;;;;;;;;;;;;;;13.03;50.73;99583.72;4479982;32;34029;-83
2023/01/06 01:36:46;;;;;;;;;;;;;;;13.57;49.25;99577.25;4482535;32;34165;-82
2023/01/06 01:39:14;;;;;;;;;;;;;;;14.10;48.22;99573.22;4468580;32;33348;-81
2023/01/06 01:41:42;;;;;;;;;;;;;;;12.72;51.41;99571.25;4468090;32;33428;-85
2023/01/06 01:44:28;;;;;;;;;;;;;;;13.11;50.48;99573.38;4467726;32;34022;-83
2023/01/06 01:46:55;;;;;;;;;;;;;;;13.91;48.72;99574.87;4482339;32;33757;-82
2023/01/06 01:49:25;;;;;;;;;;;;;;;14.02;48.50;99564.50;4482331;32;33859;-82
2023/01/06 01:51:53;;;;;;;;;;;;;;;12.31;52.83;99576.84;4482103;32;35025;-81
2023/01/06 01:54:21;;;;;;;;;;;;;;;11.88;54.16;99574.56;4466230;32;35092;-81
2023/01/06 01:56:51;;;;;;;;;;;;;;;13.05;51.25;99571.56;4467702;32;34107;-89
2023/01/06 01:59:20;;;;;;;;;;;;;;;13.11;50.90;99575.97;4456573;32;33522;-87
2023/01/06 02:01:49;;;;;;;;;;;;;;;12.01;53.55;99574.72;4481070;32;34316;-82
2023/01/06 02:04:17;;;;;;;;;;;;;;;12.75;52.46;99584.28;4467506;32;34908;-82
2023/01/06 02:06:47;;;;;;;;;;;;;;;13.07;50.99;99579.41;4467921;32;34197;-81
2023/01/06 02:09:16;;;;;;;;;;;;;;;13.84;49.07;99586.12;4468270;32;34319;-89
2023/01/06 02:11:46;;;;;;;;;;;;;;;12.48;52.33;99579.66;4468018;32;34203;-87
2023/01/06 02:14:14;;;;;;;;;;;;;;;12.62;52.10;99588.50;4481675;32;33939;-90
2023/01/06 02:16:59;;;;;;;;;;;;;;;12.82;51.66;99596.50;4480606;32;34671;-81
2023/01/06 02:19:26;;;;;;;;;;;;;;;13.41;49.59;99588.44;4454062;32;33604;-80
2023/01/06 02:22:00;;;;;;;;;;;;;;;12.54;51.94;99590.09;4476438;32;34177;-80
2023/01/06 02:24:36;;;;;;;;;;;;;;;12.72;51.65;99592.06;4472278;32;34116;-81
2023/01/06 02:27:16;;;;;;;;;;;;;;;13.56;49.63;99596.34;4468511;32;33924;-82
2023/01/06 02:29:49;;;;;;;;;;;;;;;13.42;49.63;99603.19;4472448;32;34281;-81
2023/01/06 02:32:36;;;;;;;;;;;;;;;12.45;51.92;99606.50;4470170;32;34630;-81
2023/01/06 02:35:17;;;;;;;;;;;;;;;13.62;49.24;99600.72;4454483;32;34317;-82
2023/01/06 02:38:12;;;;;;;;;;;;;;;13.42;49.91;99600.59;4460317;32;34220;-91
2023/01/06 02:40:46;;;;;;;;;;;;;;;13.23;50.33;99593.44;4434386;32;33891;-85
2023/01/06 02:43:24;;;;;;;;;;;;;;;12.02;53.42;99600.75;4483708;32;33990;-91
2023/01/06 02:46:10;;;;;;;;;;;;;;;11.60;54.20;99606.16;4483581;32;34897;-81
2023/01/06 02:48:47;;;;;;;;;;;;;;;12.47;52.75;99604.78;4484067;32;34102;-81
2023/01/06 02:51:40;;;;;;;;;;;;;;;12.53;51.67;99594.44;4483809;32;32395;-81
2023/01/06 02:54:11;;;;;;;;;;;;;;;12.05;53.15;99599.91;4475937;32;34456;-82
2023/01/06 02:56:40;;;;;;;;;;;;;;;12.26;52.32;99609.72;4468232;32;34555;-81
2023/01/06 02:59:08;;;;;;;;;;;;;;;11.75;53.84;99616.78;4469147;32;34840;-81
2023/01/06 03:01:39;;;;;;;;;;;;;;;12.77;51.33;99613.81;4462021;32;33728;-81
2023/01/06 03:04:11;;;;;;;;;;;;;;;12.20;53.34;99628.72;4460789;32;34670;-86
2023/01/06 03:06:43;;;;;;;;;;;;;;;11.76;53.19;99620.25;4469527;32;33781;-82
2023/01/06 03:09:13;;;;;;;;;;;;;;;10.64;57.36;99639.88;4484539;32;34000;-82
2023/01/06 03:11:41;;;;;;;;;;;;;;;11.89;54.21;99637.78;4469427;32;33180;-89
2023/01/06 03:14:20;;;;;;;;;;;;;;;12.32;52.87;99638.41;4469226;32;34928;-82
2023/01/06 03:16:48;;;;;;;;;;;;;;;12.18;52.96;99636.47;4483234;32;34266;-82
2023/01/06 03:19:15;;;;;;;;;;;;;;;11.91;53.47;99631.75;4472209;32;34519;-83
2023/01/06 03:21:43;;;;;;;;;;;;;;;11.65;54.28;99630.47;4470556;32;33371;-83
2023/01/06 03:24:11;;;;;;;;;;;;;;;12.05;53.28;99633.69;4456365;32;34165;-85
2023/01/06 03:26:38;;;;;;;;;;;;;;;11.52;54.65;99629.41;4481020;32;35153;-82
2023/01/06 03:29:06;;;;;;;;;;;;;;;12.06;52.51;99620.72;4466530;32;34493;-81
2023/01/06 03:31:35;;;;;;;;;;;;;;;12.32;52.09;99628.88;4467705;32;33494;-81
2023/01/06 03:34:18;;;;;;;;;;;;;;;12.56;51.50;99623.09;4466755;32;34966;-82
2023/01/06 03:37:05;;;;;;;;;;;;;;;12.37;51.86;99622.00;4481120;32;34416;-83
2023/01/06 03:39:59;;;;;;;;;;;;;;;12.34;51.94;99618.47;4480689;32;34011;-82
2023/01/06 03:43:14;;;;;;;;;;;;;;;12.06;52.55;99615.53;4453365;32;33313;-82
2023/01/06 03:45:51;;;;;;;;;;;;;;;12.08;52.38;99619.00;4467884;32;34745;-86
2023/01/06 03:48:24;;;;;;;;;;;;;;;11.06;55.21;99619.94;4479916;32;35289;-82
2023/01/06 03:50:55;;;;;;;;;;;;;;;11.56;54.31;99623.41;4468573;32;33943;-82
2023/01/06 03:53:25;;;;;;;;;;;;;;;11.67;53.92;99620.97;4480896;32;32981;-84
2023/01/06 03:55:54;;;;;;;;;;;;;;;12.82;50.43;99622.53;4455596;32;34073;-83
2023/01/06 03:58:21;;;;;;;;;;;;;;;12.64;51.03;99620.59;4461539;32;34807;-85
2023/01/06 04:00:51;;;;;;;;;;;;;;;12.90;49.93;99620.87;4451411;32;34347;-81
2023/01/06 04:03:18;;;;;;;;;;;;;;;12.44;51.87;99628.16;4465267;32;33412;-88
2023/01/06 04:05:46;;;;;;;;;;;;;;;12.65;51.02;99636.22;4455908;32;33864;-90
2023/01/06 04:08:14;;;;;;;;;;;;;;;12.08;52.67;99657.97;4481831;32;34894;-82
2023/01/06 04:10:41;;;;;;;;;;;;;;;12.24;52.48;99655.63;4483507;32;34384;-82
2023/01/06 04:13:08;;;;;;;;;;;;;;;12.27;52.10;99666.91;4480137;32;33537;-83
2023/01/06 04:15:37;;;;;;;;;;;;;;;12.33;51.99;99664.41;4480144;32;35069;-82
2023/01/06 04:18:05;;;;;;;;;;;;;;;12.76;51.02;99662.34;4480112;32;34424;-81
2023/01/06 04:20:33;;;;;;;;;;;;;;;12.56;51.31;99669.03;4477900;32;34054;-86
2023/01/06 04:23:02;;;;;;;;;;;;;;;11.88;53.41;99680.19;4470132;32;32994;-81
2023/01/06 04:25:30;;;;;;;;;;;;;;;13.06;50.15;99664.41;4475291;31;33909;-82
2023/01/06 04:28:04;;;;;;;;;;;;;;;13.41;48.87;99658.75;4476440;32;34289;-88
2023/01/06 04:30:33;;;;;;;;;;;;;;;12.06;52.73;99657.09;4479629;32;35110;-82
2023/01/06 04:33:01;;;;;;;;;;;;;;;11.95;53.02;99661.25;4482541;32;33773;-82
2023/01/06 04:35:28;;;;;;;;;;;;;;;12.49;51.69;99656.81;4481579;32;33852;-86
2023/01/06 04:37:59;;;;;;;;;;;;;;;12.46;51.83;99651.56;4463264;32;33931;-91
2023/01/06 04:40:26;;;;;;;;;;;;;;;12.05;53.02;99644.09;4473033;32;34774;-83
2023/01/06 04:43:05;;;;;;;;;;;;;;;11.15;55.79;99657.31;4480172;32;33324;-82
2023/01/06 04:45:33;;;;;;;;;;;;;;;11.91;53.47;99647.34;4481037;32;34247;-82
2023/01/06 04:48:07;;;;;;;;;;;;;;;12.38;52.35;99664.47;4467029;32;34121;-84
2023/01/06 04:50:35;;;;;;;;;;;;;;;11.68;54.43;99659.94;4481082;32;34240;-85
2023/01/06 04:53:02;;;;;;;;;;;;;;;11.64;54.51;99660.75;4479868;32;32784;-84
2023/01/06 04:55:29;;;;;;;;;;;;;;;11.34;55.24;99665.44;4482070;32;33773;-82
2023/01/06 04:57:57;;;;;;;;;;;;;;;10.43;57.57;99678.34;4466382;32;35044;-82
2023/01/06 05:00:24;;;;;;;;;;;;;;;10.84;56.47;99675.75;4467428;32;33770;-82
2023/01/06 05:02:51;;;;;;;;;;;;;;;11.52;54.52;99683.94;4474576;32;34161;-82
2023/01/06 05:05:18;;;;;;;;;;;;;;;12.01;53.29;99684.75;4472415;32;35217;-91
2023/01/06 05:07:46;;;;;;;;;;;;;;;11.01;56.13;99700.28;4469720;32;34174;-83
2023/01/06 05:10:13;;;;;;;;;;;;;;;12.36;52.34;99700.00;4469675;32;33634;-81
2023/01/06 05:12:41;;;;;;;;;;;;;;;12.65;51.78;99709.06;4481291;32;33257;-82
2023/01/06 05:15:08;;;;;;;;;;;;;;;12.52;51.83;99706.28;4477519;32;33860;-84
2023/01/06 05:17:37;;;;;;;;;;;;;;;12.42;52.25;99710.44;4476140;32;35222;-83
2023/01/06 05:20:04;;;;;;;;;;;;;;;13.50;49.76;99704.84;4481139;32;35160;-81
2023/01/06 05:22:32;;;;;;;;;;;;;;;12.90;51.09;99712.81;4479320;32;34292;-83
2023/01/06 05:24:59;;;;;;;;;;;;;;;12.92;50.91;99710.25;4464704;32;34290;-82
2023/01/06 05:27:26;;;;;;;;;;;;;;;13.30;50.07;99702.03;4480962;32;35054;-82
2023/01/06 05:29:53;;;;;;;;;;;;;;;12.56;51.82;99706.31;4479511;32;34402;-81
2023/01/06 05:32:21;;;;;;;;;;;;;;;13.00;50.61;99707.75;4483029;32;34322;-83
2023/01/06 05:34:48;;;;;;;;;;;;;;;12.36;52.61;99719.06;4480800;32;34279;-83
2023/01/06 05:37:16;;;;;;;;;;;;;;;12.54;52.28;99718.44;4474477;32;35309;-82
2023/01/06 05:39:43;;;;;;;;;;;;;;;13.25;50.46;99714.13;4467938;32;34242;-85
2023/01/06 05:42:10;;;;;;;;;;;;;;;11.73;54.46;99730.16;4481312;32;33377;-82
2023/01/06 05:44:37;;;;;;;;;;;;;;;10.83;57.11;99736.22;4482336;32;34260;-82
2023/01/06 05:47:05;;;;;;;;;;;;;;;11.44;55.72;99740.91;4479707;32;34041;-83
2023/01/06 05:49:32;;;;;;;;;;;;;;;12.03;54.07;99740.22;4470816;32;35102;-82
2023/01/06 05:51:59;;;;;;;;;;;;;;;11.73;54.67;99747.47;4466485;32;34260;-82
2023/01/06 05:54:26;;;;;;;;;;;;;;;12.03;53.87;99752.34;4481352;32;35127;-81
2023/01/06 05:56:54;;;;;;;;;;;;;;;12.52;51.94;99750.47;4479233;32;34181;-90
2023/01/06 05:59:21;;;;;;;;;;;;;;;12.48;52.28;99761.69;4482155;32;34209;-86
2023/01/06 06:01:48;;;;;;;;;;;;;;;13.06;50.66;99759.84;4480472;32;33721;-80
2023/01/06 06:04:16;;;;;;;;;;;;;;;12.46;51.67;99765.97;4480647;32;34741;-82
2023/01/06 06:06:43;;;;;;;;;;;;;;;13.20;49.92;99765.25;4478916;32;34984;-82
2023/01/06 06:09:10;;;;;;;;;;;;;;;12.31;52.41;99766.63;4471297;32;33931;-82
2023/01/06 06:11:38;;;;;;;;;;;;;;;12.29;52.25;99766.63;4472071;32;32790;-81
2023/01/06 06:14:07;;;;;;;;;;;;;;;12.73;51.39;99769.00;4469599;32;35040;-82
2023/01/06 06:16:34;;;;;;;;;;;;;;;13.80;48.55;99764.16;4457012;32;34363;-88
2023/01/06 06:19:01;;;;;;;;;;;;;;;13.37;49.32;99761.12;4478954;32;34025;-87
2023/01/06 06:21:29;;;;;;;;;;;;;;;12.41;51.82;99774.59;4484229;32;33364;-92
2023/01/06 06:23:56;;;;;;;;;;;;;;;13.44;49.24;99762.94;4468222;32;33876;-84
2023/01/06 06:26:24;;;;;;;;;;;;;;;13.39;49.07;99764.63;4483049;32;34157;-82
2023/01/06 06:28:51;;;;;;;;;;;;;;;12.92;50.28;99777.94;4471662;32;34350;-92
2023/01/06 06:31:21;;;;;;;;;;;;;;;13.79;48.07;99767.66;4472235;32;33437;-91
2023/01/06 06:33:52;;;;;;;;;;;;;;;14.21;46.71;99781.91;4477798;32;34383;-87
2023/01/06 06:36:19;;;;;;;;;;;;;;;13.61;48.37;99778.75;4469086;32;34515;-88
2023/01/06 06:38:47;;;;;;;;;;;;;;;13.97;47.71;99780.81;4477711;32;34227;-89
2023/01/06 06:41:14;;;;;;;;;;;;;;;14.02;47.44;99786.97;4482331;32;33970;-90
2023/01/06 06:43:41;;;;;;;;;;;;;;;13.78;47.97;99791.94;4483892;32;34668;-81
2023/01/06 06:46:09;;;;;;;;;;;;;;;13.87;47.50;99792.03;4483427;32;34395;-91
2023/01/06 06:48:36;;;;;;;;;;;;;;;13.98;46.99;99793.03;4483970;32;34005;-88
2023/01/06 06:51:05;;;;;;;;;;;;;;;13.89;47.74;99798.13;4483810;32;34746;-90
2023/01/06 06:53:33;;;;;;;;;;;;;;;13.87;47.15;99792.91;4469763;32;34180;-82
2023/01/06 06:56:01;;;;;;;;;;;;;;;12.17;51.77;99800.22;4470100;32;34292;-82
2023/01/06 06:58:28;;;;;;;;;;;;;;;13.09;49.18;99797.22;4475881;32;34763;-82
2023/01/06 07:00:55;;;;;;;;;;;;;;;13.33;48.69;99796.69;4482865;32;31900;-83
2023/01/06 07:03:24;;;;;;;;;;;;;;;13.81;47.27;99802.41;4467290;32;35079;-82
2023/01/06 07:05:52;;;;;;;;;;;;;;;14.12;46.10;99800.94;4482072;32;33867;-86
2023/01/06 07:08:19;;;;;;;;;;;;;;;14.27;45.63;99808.03;4483400;32;34237;-83
2023/01/06 07:10:47;;;;;;;;;;;;;;;13.94;46.49;99814.72;4483092;32;34340;-85
2023/01/06 07:13:14;;;;;;;;;;;;;;;14.00;46.61;99813.88;4469920;32;34077;-82
2023/01/06 07:15:41;;;;;;;;;;;;;;;13.03;49.64;99828.41;4480331;32;34046;-83
2023/01/06 07:18:08;;;;;;;;;;;;;;;13.38;48.33;99826.25;4483790;32;34339;-91
2023/01/06 07:20:36;;;;;;;;;;;;;;;13.94;47.00;99837.25;4483866;32;33409;-82
2023/01/06 07:23:03;;;;;;;;;;;;;;;14.20;46.32;99837.50;4484004;32;34867;-84
2023/01/06 07:25:31;;;;;;;;;;;;;;;13.42;48.31;99848.00;4483069;32;34524;-89
2023/01/06 07:27:59;;;;;;;;;;;;;;;13.35;48.86;99848.78;4473832;32;34099;-83
2023/01/06 07:30:26;;;;;;;;;;;;;;;13.75;47.99;99844.03;4479853;32;34488;-91
2023/01/06 07:32:53;;;;;;;;;;;;;;;13.32;48.81;99838.31;4459573;32;33617;-89
2023/01/06 07:35:21;;;;;;;;;;;;;;;14.01;47.26;99839.94;4468815;32;35021;-82
2023/01/06 07:37:48;;;;;;;;;;;;;;;13.93;47.26;99830.31;4468713;32;34012;-91
2023/01/06 07:40:17;;;;;;;;;;;;;;;13.96;47.52;99830.34;4468593;32;34343;-91
2023/01/06 07:42:44;;;;;;;;;;;;;;;13.53;48.63;99833.37;4468485;32;35288;-83
2023/01/06 07:45:11;;;;;;;;;;;;;;;12.25;52.03;99834.13;4469119;32;34381;-82
2023/01/06 07:47:39;;;;;;;;;;;;;;;13.10;49.98;99830.19;4483874;32;34792;-91
2023/01/06 07:50:06;;;;;;;;;;;;;;;12.65;50.81;99831.31;4484166;32;32877;-90
2023/01/06 07:52:33;;;;;;;;;;;;;;;13.87;47.72;99832.00;4483459;32;34719;-88
2023/01/06 07:55:01;;;;;;;;;;;;;;;14.21;46.85;99828.84;4482013;32;34387;-89
2023/01/06 07:57:28;;;;;;;;;;;;;;;13.14;49.59;99837.22;4478832;32;33272;-93
2023/01/06 07:59:55;;;;;;;;;;;;;;;13.00;50.14;99840.50;4473912;32;34211;-91
2023/01/06 08:02:23;;;;;;;;;;;;;;;13.37;49.36;99839.25;4468151;32;34141;-93
2023/01/06 08:04:50;;;;;;;;;;;;;;;13.52;48.97;99836.81;4468333;32;35612;-91
2023/01/06 08:07:18;;;;;;;;;;;;;;;13.89;47.91;99837.22;4473400;32;34126;-92
2023/01/06 08:09:45;;;;;;;;;;;;;;;13.34;49.38;99840.09;4483831;32;33301;-92
2023/01/06 08:12:12;;;;;;;;;;;;;;;13.35;49.25;99833.16;4483390;32;33825;-83
2023/01/06 08:14:39;;;;;;;;;;;;;;;12.65;51.50;99831.31;4482370;32;34491;-91
2023/01/06 08:17:07;;;;;;;;;;;;;;;12.98;50.64;99819.63;4479377;32;35197;-82
2023/01/06 08:19:34;;;;;;;;;;;;;;;11.64;54.53;99813.97;4481884;32;34424;-92
2023/01/06 08:22:01;;;;;;;;;;;;;;;12.22;53.16;99811.56;4473799;32;34278;-87
2023/01/06 08:24:29;;;;;;;;;;;;;;;13.01;50.86;99804.06;4483528;32;35156;-83
2023/01/06 08:26:59;;;;;;;;;;;;;;;13.06;50.54;99798.91;4475978;32;34034;-83
2023/01/06 08:29:26;;;;;;;;;;;;;;;12.28;52.21;99800.41;4472741;32;33004;-89
2023/01/06 08:31:53;;;;;;;;;;;;;;;12.62;51.30;99797.47;4475559;32;33864;-85
2023/01/06 08:34:35;;;;;;;;;;;;;;;12.40;51.98;99798.84;4476745;32;35289;-91
2023/01/06 08:37:02;;;;;;;;;;;;;;;12.45;51.83;99800.66;4471172;32;33947;-82
2023/01/06 08:39:29;;;;;;;;;;;;;;;12.25;52.21;99802.94;4474808;32;34298;-86
2023/01/06 08:41:57;;;;;;;;;;;;;;;12.55;51.02;99793.00;4482849;32;34305;-87
2023/01/06 08:44:24;;;;;;;;;;;;;;;12.25;51.91;99796.03;4453869;32;926301;-89
2023/01/06 08:46:51;;;;;;;;;;;;;;;12.42;50.91;99796.25;4482336;32;34052;-89
2023/01/06 08:49:19;;;;;;;;;;;;;;;12.45;50.57;99800.66;4475108;32;33510;-87
2023/01/06 08:51:46;;;;;;;;;;;;;;;12.41;50.28;99794.53;4483124;32;34322;-88
2023/01/06 08:54:13;;;;;;;;;;;;;;;11.89;51.03;99798.84;4474201;32;34515;-83
2023/01/06 08:56:42;;;;;;;;;;;;;;;12.00;51.48;99807.72;4467589;32;33974;-89
2023/01/06 08:59:11;;;;;;;;;;;;;;;12.22;50.33;99818.50;4469177;32;33273;-83
2023/01/06 09:01:38;;;;;;;;;;;;;;;11.96;51.12;99828.44;4479734;32;33574;-84
2023/01/06 09:04:06;;;;;;;;;;;;;;;12.11;50.35;99826.09;4483070;32;34244;-87
2023/01/06 09:06:34;;;;;;;;;;;;;;;11.96;49.99;99836.22;4468699;32;34545;-85
2023/01/06 09:09:02;;;;;;;;;;;;;;;11.24;51.50;99856.44;4482791;32;33038;-82
2023/01/06 09:11:29;;;;;;;;;;;;;;;11.55;51.29;99852.75;4482932;32;35136;-85
2023/01/06 09:13:57;;;;;;;;;;;;;;;11.87;50.63;99852.53;4482367;32;34047;-85
2023/01/06 09:16:24;;;;;;;;;;;;;;;12.52;49.26;99849.31;4482644;32;33979;-83
2023/01/06 09:18:52;;;;;;;;;;;;;;;12.55;49.49;99850.22;4482574;32;33577;-89
2023/01/06 09:21:20;;;;;;;;;;;;;;;12.73;49.58;99853.94;4475322;32;33604;-90
2023/01/06 09:23:47;;;;;;;;;;;;;;;13.10;47.92;99851.03;4473989;32;34378;-85
2023/01/06 09:26:15;;;;;;;;;;;;;;;12.74;49.40;99853.12;4453960;32;34308;-88
2023/01/06 09:28:43;;;;;;;;;;;;;;;11.99;51.28;99852.75;4453834;32;34266;-88
2023/01/06 09:31:10;;;;;;;;;;;;;;;11.99;51.93;99855.34;4473851;32;34408;-84
2023/01/06 09:33:38;;;;;;;;;;;;;;;11.72;52.37;99867.81;4473950;32;35263;-83
2023/01/06 09:36:05;;;;;;;;;;;;;;;12.22;51.36;99854.88;4476257;32;33867;-83
2023/01/06 09:38:33;;;;;;;;;;;;;;;11.26;53.44;99856.50;4459732;32;33252;-89
2023/01/06 09:41:03;;;;;;;;;;;;;;;11.57;52.50;99864.06;4473772;32;34290;-91
2023/01/06 09:43:37;;;;;;;;;;;;;;;12.52;50.14;99854.50;4476870;32;34211;-86
2023/01/06 09:46:05;;;;;;;;;;;;;;;12.88;49.13;99844.66;4453097;32;33716;-90
2023/01/06 09:48:35;;;;;;;;;;;;;;;11.69;52.12;99847.81;4459362;32;33021;-82
2023/01/06 09:51:03;;;;;;;;;;;;;;;12.58;49.75;99847.69;4467093;32;34133;-87
2023/01/06 09:53:30;;;;;;;;;;;;;;;12.29;50.85;99848.94;4463534;32;34801;-91
2023/01/06 09:55:59;;;;;;;;;;;;;;;13.43;48.35;99846.28;4478761;32;34343;-88
2023/01/06 09:58:40;;;;;;;;;;;;;;;12.48;50.22;99844.91;4483628;32;34314;-90
2023/01/06 10:01:09;;;;;;;;;;;;;;;12.15;51.76;99846.97;4456336;32;34355;-89
2023/01/06 10:03:37;;;;;;;;;;;;;;;12.61;50.67;99855.53;4454394;32;34038;-84
2023/01/06 10:06:25;;;;;;;;;;;;;;;12.94;49.66;99854.28;4457910;32;33660;-84
2023/01/06 10:08:56;;;;;;;;;;;;;;;13.14;49.20;99852.84;4469241;32;33051;-88
2023/01/06 10:11:41;;;;;;;;;;;;;;;13.47;48.56;99842.84;4469361;32;34541;-86
2023/01/06 10:14:27;;;;;;;;;;;;;;;14.15;46.96;99847.03;4484101;32;34385;-86
2023/01/06 10:16:57;;;;;;;;;;;;;;;13.94;47.23;99848.59;4484112;32;34371;-83
2023/01/06 10:19:43;;;;;;;;;;;;;;;14.17;46.76;99835.78;4475797;32;34163;-82
2023/01/06 10:22:10;;;;;;;;;;;;;;;14.16;46.91;99840.94;4468676;32;34232;-81
2023/01/06 10:25:01;;;;;;;;;;;;;;;14.18;46.97;99844.47;4475374;32;34367;-91
2023/01/06 10:27:35;;;;;;;;;;;;;;;14.16;47.07;99833.13;4475927;31;34986;-89
2023/01/06 10:30:04;;;;;;;;;;;;;;;12.80;49.66;99840.19;4469316;32;32976;-92
2023/01/06 10:32:33;;;;;;;;;;;;;;;12.65;50.01;99836.53;4483728;32;33798;-87
2023/01/06 10:35:09;;;;;;;;;;;;;;;13.55;47.71;99834.25;4456626;32;33574;-81
2023/01/06 10:37:39;;;;;;;;;;;;;;;13.30;48.22;99842.66;4458603;32;34024;-87
2023/01/06 10:40:25;;;;;;;;;;;;;;;14.35;45.79;99835.03;4462527;32;33281;-83
2023/01/06 10:42:54;;;;;;;;;;;;;;;12.71;48.81;99833.13;4471286;32;34349;-82
2023/01/06 10:45:23;;;;;;;;;;;;;;;13.97;46.02;99832.97;4441650;32;33758;-87
2023/01/06 10:47:51;;;;;;;;;;;;;;;13.22;48.49;99841.63;4474219;32;34389;-90
2023/01/06 10:50:18;;;;;;;;;;;;;;;13.21;48.20;99842.50;4468397;32;34277;-92
2023/01/06 10:52:46;;;;;;;;;;;;;;;14.06;46.42;99829.59;4454093;32;33996;-85
2023/01/06 10:55:32;;;;;;;;;;;;;;;13.83;46.37;99829.38;4475236;32;34004;-86
2023/01/06 10:58:02;;;;;;;;;;;;;;;13.68;46.48;99831.81;4473742;32;33682;-83
2023/01/06 11:00:31;;;;;;;;;;;;;;;13.82;46.66;99835.41;4457151;32;34270;-90
2023/01/06 11:03:02;;;;;;;;;;;;;;;14.04;45.83;99832.16;4473208;32;34972;-82
2023/01/06 11:06:01;;;;;;;;;;;;;;;13.90;46.68;99831.16;4473755;32;35204;-90
2023/01/06 11:08:28;;;;;;;;;;;;;;;14.47;45.49;99824.72;4455446;32;34009;-91
2023/01/06 11:10:56;;;;;;;;;;;;;;;14.44;45.18;99826.44;4472163;32;33596;-92
2023/01/06 11:13:33;;;;;;;;;;;;;;;14.51;45.24;99823.91;4479812;32;33768;-86
2023/01/06 11:16:01;;;;;;;;;;;;;;;15.00;44.17;99823.31;4454844;32;34479;-84
2023/01/06 11:18:32;;;;;;;;;;;;;;;15.17;43.96;99824.28;4478757;32;34086;-93
2023/01/06 11:21:04;;;;;;;;;;;;;;;15.05;43.26;99821.62;4461540;32;33266;-92
2023/01/06 11:23:32;;;;;;;;;;;;;;;14.41;44.20;99819.44;4472705;32;34579;-90
2023/01/06 11:26:26;;;;;;;;;;;;;;;14.73;43.80;99811.84;4444977;32;34177;-87
2023/01/06 11:28:54;;;;;;;;;;;;;;;15.55;42.08;99811.37;4472377;32;33801;-90
2023/01/06 11:31:22;;;;;;;;;;;;;;;14.84;43.51;99815.41;4474484;32;33305;-82
2023/01/06 11:33:56;;;;;;;;;;;;;;;15.33;42.54;99810.41;4454814;32;34787;-83
2023/01/06 11:36:25;;;;;;;;;;;;;;;14.62;44.05;99815.25;4453109;32;33964;-87
2023/01/06 11:38:56;;;;;;;;;;;;;;;14.10;45.67;99807.91;4456533;32;34492;-82
2023/01/06 11:41:25;;;;;;;;;;;;;;;14.24;45.01;99800.16;4452653;32;34388;-90
2023/01/06 11:43:53;;;;;;;;;;;;;;;13.02;47.63;99808.41;4454866;32;33944;-90
2023/01/06 11:46:21;;;;;;;;;;;;;;;14.57;44.27;99791.75;4467751;32;34369;-91
2023/01/06 11:48:50;;;;;;;;;;;;;;;14.66;44.21;99790.94;4467879;32;34040;-91
2023/01/06 11:51:30;;;;;;;;;;;;;;;14.59;43.94;99793.53;4453939;32;33528;-89
2023/01/06 11:53:57;;;;;;;;;;;;;;;15.11;43.50;99797.28;4467001;32;34060;-83
2023/01/06 11:56:24;;;;;;;;;;;;;;;15.56;42.30;99797.44;4467668;32;34473;-84
2023/01/06 11:59:08;;;;;;;;;;;;;;;15.58;42.17;99793.09;4468163;32;33973;-89
2023/01/06 12:01:50;;;;;;;;;;;;;;;15.02;42.77;99798.97;4453439;32;32645;-85
2023/01/06 12:04:21;;;;;;;;;;;;;;;14.01;44.41;99792.16;4454257;32;33802;-85
2023/01/06 12:06:48;;;;;;;;;;;;;;;15.49;40.54;99782.63;4456128;32;35932;-90
2023/01/06 12:09:27;;;;;;;;;;;;;;;15.05;41.98;99785.06;4483924;32;34817;-87
2023/01/06 12:11:55;;;;;;;;;;;;;;;14.36;43.50;99782.03;4470179;32;32944;-89
2023/01/06 12:14:23;;;;;;;;;;;;;;;14.73;42.51;99770.09;4467791;32;33895;-89
2023/01/06 12:17:00;;;;;;;;;;;;;;;15.13;42.62;99761.59;4454299;32;34084;-82
2023/01/06 12:19:47;;;;;;;;;;;;;;;15.91;39.80;99754.84;4482159;32;34269;-84
2023/01/06 12:22:22;;;;;;;;;;;;;;;14.69;42.29;99755.28;4483619;32;33524;-84
2023/01/06 12:24:50;;;;;;;;;;;;;;;15.13;41.24;99745.94;4469148;32;35146;-82
2023/01/06 12:27:22;;;;;;;;;;;;;;;15.60;41.16;99743.41;4468342;32;34547;-91
2023/01/06 12:29:49;;;;;;;;;;;;;;;15.79;40.47;99736.50;4468286;32;34441;-92
2023/01/06 12:32:18;;;;;;;;;;;;;;;15.81;40.95;99742.63;4483655;32;33721;-85
2023/01/06 12:34:47;;;;;;;;;;;;;;;15.48;41.62;99740.78;4468779;32;33995;-84
2023/01/06 12:37:18;;;;;;;;;;;;;;;14.97;42.71;99738.03;4483411;32;35250;-84
2023/01/06 12:40:09;;;;;;;;;;;;;;;15.85;41.04;99733.91;4469348;32;33693;-91
2023/01/06 12:42:49;;;;;;;;;;;;;;;15.60;41.26;99727.75;4482032;32;33019;-83
2023/01/06 12:45:35;;;;;;;;;;;;;;;15.65;41.67;99730.38;4468886;32;33564;-84
2023/01/06 12:48:25;;;;;;;;;;;;;;;16.23;40.32;99728.66;4484014;32;33995;-92
2023/01/06 12:50:54;;;;;;;;;;;;;;;15.85;40.20;99722.59;4482990;32;33542;-90
2023/01/06 12:53:24;;;;;;;;;;;;;;;16.13;39.85;99720.81;4469292;32;33327;-84
2023/01/06 12:56:03;;;;;;;;;;;;;;;15.10;42.13;99728.50;4468757;32;34144;-86
2023/01/06 12:58:37;;;;;;;;;;;;;;;15.30;41.88;99719.00;4469060;32;35010;-85
2023/01/06 13:01:06;;;;;;;;;;;;;;;15.62;41.69;99726.03;4471306;32;36006;-82
2023/01/06 13:03:53;;;;;;;;;;;;;;;15.24;41.76;99715.50;4468904;32;34287;-84